Latest Weather Observations for Rabbit Flat

IDD60801

Issued at 10:31 pm CST Sunday 7 February 2016 (issued every 30 minutes, with the page automatically refreshed every 10 minutes)

About weather observations | Map of weather stations | Latest weather observations for NT | Other Formats
Station Details ID: 015666 Name: RABBIT FLAT Lat: -20.18 Lon: 130.01 Height: 340.0 m
Data from the previous 72 hours. | See also: Recent months at Rabbit Flat
Date/Time
CST
Temp
°C
App
Temp
°C
Dew
Point
Rel
Hum
%
Delta-T
°C
Wind Press
QNH
hPa
Press
MSL
hPa
Rain
since 9 am
mm
Dir
 
Spd
km/h
Gust
km/h
Spd
kts
Gust
kts
07/10:30pm 27.6 32.1 21.5 69 4.1 CALM 0 0 0 0 1011.0 - 0.0
07/10:00pm 28.0 32.2 21.0 65 4.7 CALM 0 0 0 0 1010.7 - 0.0
07/09:30pm 28.3 32.6 21.2 65 4.8 CALM 0 0 0 0 1010.3 - 0.0
07/09:00pm 29.8 33.0 18.8 51 7.2 CALM 0 0 0 0 1010.0 1007.2 0.0
07/08:30pm 30.0 33.6 19.8 54 6.8 CALM 0 0 0 0 1009.7 - 0.0
07/08:00pm 31.8 33.9 16.2 39 9.9 CALM 0 0 0 0 1009.2 - 0.0
07/07:30pm 33.3 34.6 14.1 31 11.9 CALM 0 0 0 0 1008.7 - 0.0
07/07:00pm 34.9 35.8 12.9 26 13.5 CALM 0 0 0 0 1008.4 - 0.0
07/06:30pm 36.4 37.0 11.9 23 14.9 CALM 0 0 0 0 1008.2 - 0.0
07/06:00pm 37.1 37.1 9.9 19 16.1 CALM 0 0 0 0 1008.1 1005.4 0.0
07/05:30pm 37.3 38.1 12.4 22 15.3 CALM 0 0 0 0 1007.9 - 0.0
07/05:00pm 37.2 37.3 10.1 19 16.1 CALM 0 0 0 0 1007.8 - 0.0
07/04:30pm 37.0 37.4 11.3 21 15.5 CALM 0 0 0 0 1008.0 - 0.0
07/04:00pm 36.3 37.1 12.7 24 14.5 CALM 0 0 0 0 1008.2 - 0.0
07/03:30pm 36.8 34.0 11.5 21 15.3 ESE 17 32 9 17 1008.4 - 0.0
07/03:00pm 36.8 33.5 11.0 21 15.5 ESE 19 24 10 13 1008.7 1006.0 0.0
07/02:30pm 37.2 37.7 11.7 21 15.5 CALM 0 0 0 0 1009.1 - 0.0
07/02:00pm 37.3 37.9 11.8 21 15.5 CALM 0 0 0 0 1009.4 - 0.0
07/01:30pm 36.7 34.4 11.8 22 15.1 ESE 15 26 8 14 1009.8 - 0.0
07/01:00pm 36.2 36.4 12.0 23 14.7 E 2 28 1 15 1010.2 - 0.0
07/12:30pm 35.7 36.5 12.7 25 14.1 CALM 0 30 0 16 1010.6 - 0.0
07/12:00pm 33.8 31.1 13.5 29 12.5 NE 20 28 11 15 1010.9 1008.2 0.0
07/11:30am 35.0 32.9 12.5 25 13.7 E 15 24 8 13 1011.3 - 0.0
07/11:00am 34.3 32.3 12.8 27 13.1 E 15 22 8 12 1011.4 - 0.0
07/10:30am 33.8 32.7 13.2 28 12.6 E 11 19 6 10 1011.5 - 0.0
07/10:00am 32.8 29.8 11.9 28 12.5 E 19 24 10 13 1011.5 - 0.0
07/09:30am 31.8 32.5 12.3 30 11.7 CALM 0 0 0 0 1011.5 - 0.0
07/09:00am 30.3 31.4 13.5 35 10.2 CALM 0 0 0 0 1011.3 1008.6 0.0
07/08:30am 28.2 29.6 14.3 42 8.5 CALM 0 0 0 0 1011.1 - 0.0
07/08:00am 25.8 27.6 15.6 53 6.3 CALM 0 0 0 0 1010.8 - 0.0
07/07:30am 23.4 26.0 17.4 69 3.8 CALM 0 0 0 0 1010.6 - 0.0
07/07:00am 20.6 23.3 17.7 83 1.8 CALM 0 0 0 0 1010.2 - 0.0
07/06:30am 19.8 22.5 17.7 88 1.3 CALM 0 0 0 0 1009.7 - 0.0
07/06:00am 19.6 22.4 18.0 90 1.0 CALM 0 0 0 0 1009.4 1006.7 0.0
07/05:30am 19.9 22.8 18.3 90 1.0 CALM 0 0 0 0 1009.2 - 0.0
07/05:00am 20.1 23.0 18.2 89 1.2 CALM 0 0 0 0 1009.0 - 0.0
07/04:30am 20.7 23.2 17.3 81 2.1 CALM 0 0 0 0 1008.9 - 0.0
07/04:00am 21.9 23.8 15.7 68 3.8 CALM 0 0 0 0 1008.8 - 0.0
07/03:30am 21.3 24.2 18.3 83 1.9 CALM 0 0 0 0 1008.4 - 0.0
07/03:00am 21.1 24.2 18.7 86 1.5 CALM 0 0 0 0 1008.4 1005.7 0.0
07/02:30am 21.6 24.2 17.4 77 2.6 CALM 0 0 0 0 1008.5 - 0.0
07/02:00am 21.7 24.1 17.0 74 2.9 CALM 0 0 0 0 1008.6 - 0.0
07/01:30am 21.8 24.2 17.0 74 3.0 CALM 0 0 0 0 1008.8 - 0.0
07/01:00am 22.1 24.5 17.1 73 3.1 CALM 0 0 0 0 1009.1 - 0.0
07/12:30am 22.2 25.0 17.9 76 2.7 CALM 0 0 0 0 1009.4 - 0.0
07/12:00am 22.5 26.2 19.9 85 1.7 CALM 0 0 0 0 1009.7 1006.9 0.0
 
Date/Time
CST
Temp
°C
App
Temp
°C
Dew
Point
Rel
Hum
%
Delta-T
°C
Wind Press
QNH
hPa
Press
MSL
hPa
Rain
since 9 am
mm
Dir
 
Spd
km/h
Gust
km/h
Spd
kts
Gust
kts
06/11:30pm 23.8 26.2 16.9 65 4.3 CALM 0 0 0 0 1009.9 - 0.0
06/11:00pm 23.8 26.9 18.7 73 3.3 CALM 0 0 0 0 1009.8 - 0.0
06/10:30pm 23.2 26.1 18.3 74 3.1 CALM 0 0 0 0 1009.4 - 0.0
06/10:00pm 24.3 25.9 14.9 55 5.7 CALM 0 0 0 0 1009.1 - 0.0
06/09:30pm 25.2 27.8 17.5 62 4.9 CALM 0 0 0 0 1008.8 - 0.0
06/09:00pm 25.3 27.7 16.9 59 5.3 CALM 0 0 0 0 1008.5 1005.8 0.0
06/08:30pm 26.5 28.7 16.5 54 6.3 CALM 0 0 0 0 1008.0 - 0.0
06/08:00pm 29.0 29.3 10.9 32 10.5 CALM 0 0 0 0 1007.8 - 0.0
06/07:30pm 30.8 28.6 9.2 26 12.3 S 11 13 6 7 1007.6 - 0.0
06/07:00pm 33.7 28.6 2.9 14 16.1 S 19 24 10 13 1007.4 - 0.0
06/06:30pm 34.6 30.3 5.3 16 15.9 S 17 28 9 15 1007.2 - 0.0
06/06:00pm 35.2 30.6 3.8 14 16.8 S 17 26 9 14 1007.0 1004.2 0.0
06/05:30pm 35.6 33.3 7.6 18 15.9 SSE 9 13 5 7 1006.9 - 0.0
06/05:00pm 35.4 31.5 5.3 15 16.5 SSE 15 28 8 15 1007.1 - 0.0
06/04:30pm 35.4 31.5 3.5 13 17.0 S 13 30 7 16 1007.2 - 0.0
06/04:00pm 35.3 32.3 6.1 16 16.2 S 11 20 6 11 1007.4 - 0.0
06/03:30pm 35.9 30.6 5.0 14 16.9 SSE 22 33 12 18 1007.6 - 0.0
06/03:00pm 34.9 33.8 5.2 16 16.2 CALM 0 0 0 0 1008.0 1005.3 0.0
06/02:30pm 34.1 33.3 6.5 18 15.3 CALM 0 0 0 0 1008.4 - 0.0
06/02:00pm 34.1 33.7 8.3 20 14.7 CALM 0 0 0 0 1008.7 - 0.0
06/01:30pm 33.8 33.2 7.2 19 14.9 CALM 0 0 0 0 1009.2 - 0.0
06/01:00pm 33.2 32.8 8.4 21 14.1 CALM 0 0 0 0 1009.8 - 0.0
06/12:30pm 32.8 31.9 6.1 19 14.6 CALM 0 0 0 0 1010.3 - 0.0
06/12:00pm 32.4 31.6 6.3 19 14.3 CALM 0 0 0 0 1010.7 1008.0 0.0
06/11:30am 32.3 31.8 7.9 22 13.7 CALM 0 0 0 0 1011.0 - 0.0
06/11:00am 31.9 31.4 7.7 22 13.5 CALM 0 0 0 0 1011.3 - 0.0
06/10:30am 31.1 26.7 7.2 22 13.2 E 20 35 11 19 1011.4 - 0.0
06/10:00am 30.5 26.6 7.2 23 12.8 E 17 28 9 15 1011.6 - 0.0
06/09:30am 29.1 25.2 8.5 27 11.5 E 19 30 10 16 1011.6 - 0.0
06/09:00am 27.6 25.3 10.5 34 9.8 E 13 19 7 10 1011.3 1008.6 0.0
06/08:30am 25.8 23.6 10.9 39 8.5 E 13 19 7 10 1011.1 - 0.0
06/08:00am 24.4 22.6 11.0 43 7.6 ESE 11 17 6 9 1010.9 - 0.0
06/07:30am 23.3 22.2 11.8 48 6.6 ESE 9 13 5 7 1010.7 - 0.0
06/07:00am 22.2 20.8 10.8 48 6.4 ESE 9 15 5 8 1010.3 - 0.0
06/06:30am 21.3 20.5 11.6 54 5.5 SE 7 11 4 6 1009.9 - 0.0
06/06:00am 21.9 21.4 12.5 55 5.4 SE 7 11 4 6 1009.4 1006.7 0.0
06/05:30am 23.1 20.7 10.2 44 7.2 ESE 13 20 7 11 1008.9 - 0.0
06/05:00am 21.4 20.0 13.4 60 4.7 SE 13 15 7 8 1008.6 - 0.0
06/04:30am 21.2 20.5 14.3 64 4.1 SSE 11 15 6 8 1008.4 - 0.0
06/04:00am 22.2 20.4 13.3 57 5.2 SSE 15 17 8 9 1008.2 - 0.0
06/03:30am 22.2 21.3 13.7 58 5.0 S 11 15 6 8 1008.1 - 0.0
06/03:00am 22.9 21.2 13.6 55 5.5 SSE 15 19 8 10 1007.9 1005.2 0.0
06/02:30am 22.6 22.3 15.4 64 4.4 S 11 13 6 7 1008.1 - 0.0
06/02:00am 23.3 22.3 15.6 62 4.7 S 15 19 8 10 1008.1 - 0.0
06/01:30am 22.6 25.4 20.9 90 1.1 S 7 7 4 4 1008.0 - 0.0
06/01:00am 23.6 27.2 20.6 83 2.0 NW 2 6 1 3 1008.2 - 0.0
06/12:30am 24.8 27.5 20.3 76 3.0 NNW 6 7 3 4 1008.4 - 0.0
06/12:00am 24.9 28.1 21.3 80 2.4 W 6 7 3 4 1008.8 1006.1 0.0
 
Date/Time
CST
Temp
°C
App
Temp
°C
Dew
Point
Rel
Hum
%
Delta-T
°C
Wind Press
QNH
hPa
Press
MSL
hPa
Rain
since 9 am
mm
Dir
 
Spd
km/h
Gust
km/h
Spd
kts
Gust
kts
05/11:30pm 24.8 29.1 21.2 80 2.4 CALM 0 0 0 0 1008.9 - 0.0
05/11:00pm 25.0 27.2 19.1 70 3.8 WNW 6 7 3 4 1009.0 - 0.0
05/10:30pm 25.3 27.7 20.1 73 3.4 W 7 7 4 4 1008.8 - 0.0
05/10:00pm 25.9 27.4 18.8 65 4.6 WNW 9 11 5 6 1008.5 - 0.0
05/09:30pm 26.4 29.1 20.7 71 3.8 NW 7 9 4 5 1008.5 - 0.0
05/09:00pm 26.7 29.0 19.9 66 4.5 W 7 9 4 5 1008.5 1005.8 0.0
05/08:30pm 28.0 32.3 21.2 66 4.6 CALM 0 0 0 0 1008.3 - 0.0
05/08:00pm 29.1 30.9 18.7 53 6.8 S 7 9 4 5 1008.0 - 0.0
05/07:30pm 30.8 31.1 15.9 40 9.4 S 9 11 5 6 1007.7 - 0.0
05/07:00pm 32.9 31.6 12.4 28 12.4 S 11 15 6 8 1007.4 - 0.0
05/06:30pm 34.1 34.0 12.1 26 13.3 NNE 4 13 2 7 1007.3 - 0.0
05/06:00pm 33.9 34.3 12.5 27 13.0 N 2 7 1 4 1007.0 1004.2 0.0
05/05:30pm 33.9 33.3 12.3 27 13.1 NE 7 11 4 6 1007.0 - 0.0
05/05:00pm 34.1 33.4 12.1 26 13.3 ESE 7 15 4 8 1007.0 - 0.0
05/04:30pm 34.0 32.8 12.9 28 12.9 SSE 11 20 6 11 1007.2 - 0.0
05/04:00pm 33.8 32.5 11.1 25 13.5 SSW 9 15 5 8 1007.6 - 0.0
05/03:30pm 33.8 32.7 13.0 28 12.7 ESE 11 24 6 13 1007.9 - 0.0
05/03:00pm 33.6 32.7 12.7 28 12.7 SE 9 20 5 11 1008.4 1005.7 0.0
05/02:30pm 33.1 32.9 12.9 29 12.3 NE 6 9 3 5 1008.8 - 0.0
05/02:00pm 33.1 32.1 12.4 28 12.5 ESE 9 17 5 9 1009.2 - 0.0
05/01:30pm 32.4 30.9 11.8 28 12.3 ENE 11 17 6 9 1009.9 - 0.0
05/01:00pm 32.1 31.5 12.3 29 11.9 NNE 7 15 4 8 1010.3 - 0.0
05/12:30pm 31.8 30.1 12.5 30 11.6 NNE 13 20 7 11 1010.9 - 0.0
05/12:00pm 31.6 28.9 11.7 29 11.8 ENE 17 32 9 17 1011.3 1008.6 0.0
05/11:30am 31.1 28.4 10.2 27 12.1 ENE 15 24 8 13 1011.7 - 0.0
05/11:00am 30.5 27.5 10.5 29 11.6 ENE 17 32 9 17 1012.0 - 0.0
05/10:30am 30.3 27.8 11.2 30 11.2 ENE 15 28 8 15 1012.2 - 0.0
05/10:00am 29.7 26.3 10.7 30 11.0 E 19 28 10 15 1012.5 - 0.0
05/09:30am 28.9 25.3 10.7 32 10.5 ENE 20 28 11 15 1012.3 - 0.0
05/09:00am 28.1 24.7 11.4 35 9.7 E 20 32 11 17 1012.3 1009.6 0.0
05/08:30am 27.5 25.1 13.7 42 8.3 ENE 19 30 10 16 1012.1 - 0.0
05/08:00am 26.5 28.1 20.0 67 4.3 E 11 17 6 9 1011.9 - 0.0
05/07:30am 25.3 27.8 21.1 77 2.8 SE 9 11 5 6 1011.5 - 0.0
05/07:00am 23.4 25.8 20.8 85 1.7 SSW 9 11 5 6 1011.0 - 0.0
05/06:30am 22.9 26.6 21.4 91 1.0 SW 4 7 2 4 1010.5 - 0.0
05/06:00am 23.1 26.4 21.8 92 0.9 WSW 7 9 4 5 1010.3 1007.6 0.0
05/05:30am 23.2 26.2 21.2 88 1.3 W 7 9 4 5 1010.1 - 0.0
05/05:00am 23.5 26.5 21.9 91 1.1 W 9 11 5 6 1009.9 - 0.0
05/04:30am 24.2 28.0 22.7 91 1.0 WNW 7 9 4 5 1009.4 - 0.0
05/04:00am 24.5 29.7 22.9 91 1.1 CALM 0 0 0 0 1009.3 - 0.0
05/03:30am 24.4 29.0 22.5 89 1.3 SSE 2 6 1 3 1009.2 - 0.0
05/03:00am 24.1 28.0 22.5 91 1.1 S 6 7 3 4 1009.3 1006.6 0.0
05/02:30am 24.3 28.4 21.6 85 1.8 NNW 2 6 1 3 1009.0 - 0.0
05/02:00am 24.5 29.4 22.3 87 1.5 CALM 0 0 0 0 1009.1 - 0.0
05/01:30am 24.5 27.8 21.5 83 2.0 SSW 6 7 3 4 1009.2 - 0.0
05/01:00am 24.7 28.5 21.7 83 2.0 SSW 4 6 2 3 1009.4 - 0.0
05/12:30am 24.9 28.7 22.7 87 1.5 SSW 7 9 4 5 1009.5 - 0.0
05/12:00am 25.0 28.7 22.2 84 1.9 SSW 6 7 3 4 1010.0 1007.2 0.0
 
Date/Time
CST
Temp
°C
App
Temp
°C
Dew
Point
Rel
Hum
%
Delta-T
°C
Wind Press
QNH
hPa
Press
MSL
hPa
Rain
since 9 am
mm
Dir
 
Spd
km/h
Gust
km/h
Spd
kts
Gust
kts
04/11:30pm 25.0 29.9 23.6 92 1.0 SSE 4 9 2 5 1010.2 - 0.0
04/11:00pm 25.5 30.4 22.3 82 2.2 CALM 0 0 0 0 1010.2 - 0.0

Other Formats:

Comma delimited format used in spreadsheet applications
http://www.bom.gov.au/fwo/IDD60801/IDD60801.95322.axf

JavaScript Object Notation format (JSON) in row-major order
http://www.bom.gov.au/fwo/IDD60801/IDD60801.95322.json